Time;durP1;ratioP1;P1;durP2;ratioP2;P2;SDS_P1;SDS_P2;PMS_P1;PMS_P2;Temp;Humidity;BMP_temperature;BMP_pressure;BME280_temperature;BME280_humidity;BME280_pressure;Samples;Min_cycle;Max_cycle;Signal;HPM_P1;HPM_P2
2022/05/03 00:01:54;;;;;;;14.73;12.60;;;7.50;1.00;8.50;93905.00;;;;7397572;19;20580;-78
2022/05/03 00:04:30;;;;;;;16.13;12.17;;;7.50;1.00;8.50;93876.00;;;;7396763;19;20128;-77
2022/05/03 00:07:23;;;;;;;13.50;11.37;;;7.50;1.00;8.40;93902.00;;;;7398132;19;20138;-77
2022/05/03 00:10:09;;;;;;;12.53;10.97;;;7.50;1.00;8.30;93905.00;;;;7394754;19;20523;-77
2022/05/03 00:13:01;;;;;;;17.67;11.10;;;7.50;1.00;8.50;93893.00;;;;7395645;19;20145;-78
2022/05/03 00:15:40;;;;;;;13.60;11.17;;;7.50;1.00;8.60;93886.00;;;;7393210;19;20638;-77
2022/05/03 00:18:20;;;;;;;11.83;10.63;;;7.50;1.00;8.70;93886.00;;;;7397005;19;20617;-77
2022/05/03 00:20:48;;;;;;;12.60;10.40;;;7.50;1.00;8.30;93905.00;;;;7395371;19;20204;-77
2022/05/03 00:23:23;;;;;;;12.87;11.03;;;7.40;1.00;8.30;93891.00;;;;7396051;19;20141;-79
2022/05/03 00:25:52;;;;;;;12.37;10.50;;;7.40;1.00;8.20;93900.00;;;;7396382;19;20192;-77
2022/05/03 00:28:19;;;;;;;16.00;10.00;;;7.40;1.00;8.20;93882.00;;;;7390336;19;20136;-76
2022/05/03 00:30:55;;;;;;;15.37;10.87;;;7.40;1.00;8.30;93867.00;;;;7391602;19;20622;-77
2022/05/03 00:33:23;;;;;;;10.23;9.23;;;7.40;1.00;8.30;93863.00;;;;7393538;19;20141;-77
2022/05/03 00:35:54;;;;;;;11.67;10.23;;;7.40;1.00;8.20;93890.00;;;;7392629;19;20152;-78
2022/05/03 00:38:34;;;;;;;10.57;9.37;;;7.30;1.00;8.20;93860.00;;;;7395492;19;20145;-76
2022/05/03 00:41:05;;;;;;;11.50;9.50;;;7.30;1.00;8.20;93879.00;;;;7394424;19;20159;-78
2022/05/03 00:45:00;;;;;;;10.27;9.00;;;7.20;1.00;8.00;93885.00;;;;7395196;19;20133;-79
2022/05/03 00:47:13;;;;;;;11.57;9.67;;;7.20;1.00;8.10;93872.00;;;;7393297;19;20251;-79
2022/05/03 00:50:15;;;;;;;11.43;9.73;;;7.20;1.00;8.20;93856.00;;;;7395978;19;20129;-76
2022/05/03 00:52:54;;;;;;;11.97;8.60;;;7.30;1.00;8.30;93880.00;;;;7394568;19;20145;-78
2022/05/03 00:56:08;;;;;;;9.80;8.63;;;7.40;1.00;8.10;93886.00;;;;7392793;19;20137;-78
2022/05/03 00:59:21;;;;;;;13.13;8.77;;;7.30;1.00;8.10;93846.00;;;;7391993;19;20172;-77
2022/05/03 01:02:05;;;;;;;11.70;9.23;;;7.30;1.00;7.90;93875.00;;;;7395769;19;20129;-81
2022/05/03 01:05:08;;;;;;;10.47;9.40;;;7.20;1.00;7.90;93876.00;;;;7393853;19;20121;-82
2022/05/03 01:07:57;;;;;;;9.77;8.73;;;7.20;1.00;7.90;93857.00;;;;7393442;19;20137;-81
2022/05/03 01:10:50;;;;;;;9.67;8.70;;;7.20;1.00;7.80;93873.00;;;;7392526;19;20183;-80
2022/05/03 01:13:36;;;;;;;9.07;8.17;;;7.20;1.00;7.80;93847.00;;;;7397425;19;20208;-80
2022/05/03 01:16:31;;;;;;;12.40;8.97;;;7.20;1.00;7.70;93869.00;;;;7391739;19;20152;-80
2022/05/03 01:19:14;;;;;;;9.50;8.40;;;7.10;1.00;7.80;93876.00;;;;7393302;19;20141;-80
2022/05/03 01:22:09;;;;;;;12.07;9.70;;;7.10;1.00;7.80;93869.00;;;;7394111;19;20132;-80
2022/05/03 01:25:29;;;;;;;11.33;9.30;;;7.10;1.00;7.80;93872.00;;;;7392079;19;20141;-79
2022/05/03 01:28:23;;;;;;;10.47;9.37;;;7.10;1.00;7.90;93868.00;;;;7393745;19;20656;-81
2022/05/03 01:31:12;;;;;;;9.77;8.63;;;7.00;1.00;7.80;93863.00;;;;7393042;19;20918;-80
2022/05/03 01:33:48;;;;;;;11.73;9.37;;;7.00;1.00;7.70;93869.00;;;;7393030;19;20624;-80
2022/05/03 01:36:39;;;;;;;12.13;9.03;;;7.00;1.00;7.70;93854.00;;;;7391274;19;20143;-80
2022/05/03 01:39:36;;;;;;;10.80;8.83;;;6.90;1.00;7.70;93867.00;;;;7393731;19;20165;-81
2022/05/03 01:43:11;;;;;;;10.90;9.23;;;6.90;17.20;7.80;93870.00;;;;7393593;19;20137;-81
2022/05/03 01:46:16;;;;;;;10.30;9.23;;;6.90;99.90;7.90;93861.00;;;;7390668;19;20144;-81
2022/05/03 01:53:15;;;;;;;10.03;8.93;;;7.10;51.10;8.00;93824.00;;;;7390153;19;20615;-80
2022/05/03 01:56:06;;;;;;;10.50;9.40;;;7.10;27.40;8.00;93849.00;;;;7390784;19;20133;-80
2022/05/03 01:59:09;;;;;;;10.93;9.40;;;7.20;1.00;8.00;93854.00;;;;7391964;19;20132;-79
2022/05/03 02:01:55;;;;;;;12.40;9.17;;;7.20;1.00;8.10;93829.00;;;;7391239;19;20163;-80
2022/05/03 02:05:05;;;;;;;9.60;8.63;;;7.30;1.00;8.10;93824.00;;;;7392265;19;20648;-80
2022/05/03 02:07:57;;;;;;;10.83;8.73;;;7.30;1.00;7.90;93849.00;;;;7393367;19;20125;-80
2022/05/03 02:10:56;;;;;;;11.63;9.17;;;7.30;1.00;7.80;93864.00;;;;7390801;19;20140;-81
2022/05/03 02:16:53;;;;;;;10.43;8.57;;;7.10;1.00;7.80;93866.00;;;;7390008;19;20567;-81
2022/05/03 02:20:00;;;;;;;9.07;8.17;;;7.00;1.00;7.70;93834.00;;;;7391992;19;20137;-80
2022/05/03 02:22:30;;;;;;;11.23;8.03;;;7.00;1.00;7.60;93872.00;;;;7390377;19;20228;-80
2022/05/03 02:25:20;;;;;;;9.60;7.90;;;6.90;1.00;7.60;93866.00;;;;7384479;19;20504;-80
2022/05/03 02:28:00;;;;;;;8.40;7.50;;;6.90;1.00;7.40;93838.00;;;;7390662;19;20502;-80
2022/05/03 02:30:39;;;;;;;9.13;8.23;;;6.80;1.00;7.40;93870.00;;;;7391427;19;20121;-80
2022/05/03 02:33:45;;;;;;;9.83;7.93;;;6.70;1.00;7.50;93875.00;;;;7393037;19;20117;-81
2022/05/03 02:36:24;;;;;;;10.90;9.07;;;6.70;1.00;7.50;93839.00;;;;7389616;19;20518;-79
2022/05/03 02:39:12;;;;;;;10.67;9.57;;;6.80;1.00;7.60;93856.00;;;;7391106;19;20145;-80
2022/05/03 02:41:50;;;;;;;11.13;10.03;;;6.80;50.10;7.60;93842.00;;;;7391404;19;20137;-81
2022/05/03 02:44:21;;;;;;;10.77;9.67;;;6.80;54.80;7.50;93843.00;;;;7391012;19;20133;-81
2022/05/03 02:47:19;;;;;;;12.00;10.70;;;6.80;47.60;7.60;93864.00;;;;7391324;19;20133;-79
2022/05/03 02:50:04;;;;;;;11.50;10.17;;;6.80;66.80;7.50;93865.00;;;;7390903;19;20143;-82
2022/05/03 02:52:56;;;;;;;12.73;11.43;;;6.80;59.30;7.40;93840.00;;;;7390167;19;20157;-80
2022/05/03 02:55:51;;;;;;;13.33;10.97;;;6.70;36.60;7.40;93859.00;;;;7390377;19;20141;-80
2022/05/03 02:58:52;;;;;;;16.70;11.97;;;6.70;68.40;7.40;93862.00;;;;7397837;19;20161;-80
2022/05/03 03:01:54;;;;;;;11.63;10.43;;;6.70;99.90;7.40;93869.00;;;;7397242;19;20157;-80
2022/05/03 03:05:07;;;;;;;16.77;13.70;;;6.60;99.90;7.40;93814.00;;;;7397438;19;20636;-80
2022/05/03 03:07:52;;;;;;;15.10;13.43;;;6.60;99.90;7.50;93857.00;;;;7399672;19;20591;-81
2022/05/03 03:10:57;;;;;;;15.90;14.07;;;6.70;99.90;7.50;93858.00;;;;7396665;19;20164;-80
2022/05/03 03:14:19;;;;;;;18.10;13.40;;;6.70;99.90;7.40;93860.00;;;;7397566;19;20141;-80
2022/05/03 03:17:09;;;;;;;12.50;11.13;;;6.60;99.90;7.30;93839.00;;;;7394730;19;20168;-81
2022/05/03 03:20:05;;;;;;;14.57;12.93;;;6.60;99.90;7.20;93853.00;;;;7397109;19;20204;-80
2022/05/03 03:22:41;;;;;;;21.10;13.70;;;6.60;99.90;7.30;93848.00;;;;7398273;19;20121;-79
2022/05/03 03:25:18;;;;;;;15.10;13.17;;;6.50;99.90;7.20;93823.00;;;;7398039;19;20608;-81
2022/05/03 03:27:53;;;;;;;15.40;12.97;;;6.50;99.90;7.20;93821.00;;;;7398908;19;20159;-80
2022/05/03 03:30:22;;;;;;;15.83;13.40;;;6.40;99.90;7.10;93859.00;;;;7397844;19;20140;-80
2022/05/03 03:32:58;;;;;;;20.87;14.90;;;6.40;99.90;7.00;93827.00;;;;7396785;19;20140;-80
2022/05/03 03:35:33;;;;;;;16.83;14.70;;;6.30;99.90;6.90;93847.00;;;;7395955;19;20148;-80
2022/05/03 03:38:01;;;;;;;15.93;14.23;;;6.20;99.90;6.80;93815.00;;;;7397068;19;20615;-80
2022/05/03 03:40:29;;;;;;;17.13;13.83;;;6.10;99.90;6.70;93835.00;;;;7396692;19;20146;-81
2022/05/03 03:43:04;;;;;;;19.67;14.50;;;;;6.60;93862.00;;;;7396632;19;20713;-80
2022/05/03 03:45:31;;;;;;;19.60;14.53;;;;;6.50;93852.00;;;;7398770;19;20128;-80
2022/05/03 03:48:01;;;;;;;20.10;15.07;;;;;6.40;93848.00;;;;7396817;19;20137;-81
2022/05/03 03:50:35;;;;;;;18.03;13.10;;;;;6.40;93848.00;;;;7396328;19;20153;-80
2022/05/03 03:53:03;;;;;;;16.07;12.53;;;;;6.40;93858.00;;;;7397046;19;20641;-80
2022/05/03 03:55:31;;;;;;;17.97;14.10;;;;;6.50;93856.00;;;;7395970;19;20204;-80
2022/05/03 03:58:05;;;;;;;15.97;14.00;;;;;6.50;93859.00;;;;7396501;19;20144;-81
2022/05/03 04:00:32;;;;;;;16.93;13.87;;;;;6.50;93857.00;;;;7396239;19;20141;-80
2022/05/03 04:03:02;;;;;;;20.13;15.33;;;;;6.50;93862.00;;;;7397066;19;20140;-81
2022/05/03 04:05:37;;;;;;;23.43;16.13;;;;;6.70;93857.00;;;;7396600;19;20157;-80
2022/05/03 04:08:05;;;;;;;19.37;16.10;;;;;6.70;93860.00;;;;7396911;19;20454;-82
2022/05/03 04:10:33;;;;;;;20.77;16.73;;;;;6.70;93863.00;;;;7394778;19;20720;-82
2022/05/03 04:13:08;;;;;;;21.40;17.33;;;;;6.80;93856.00;;;;7396201;19;20147;-83
2022/05/03 04:15:48;;;;;;;20.67;17.57;;;;;6.80;93865.00;;;;7394746;19;20165;-82
2022/05/03 04:18:23;;;;;;;26.73;18.70;;;;;7.10;93865.00;;;;7395921;19;20599;-82
2022/05/03 04:20:50;;;;;;;23.10;18.73;;;;;7.10;93865.00;;;;7396260;19;20472;-81
2022/05/03 04:23:22;;;;;;;26.87;20.80;;;;;7.20;93863.00;;;;7397542;19;20227;-81
2022/05/03 04:25:57;;;;;;;25.10;20.73;;;;;7.30;93873.00;;;;7395839;19;20580;-81
2022/05/03 04:28:25;;;;;;;24.37;19.77;;;;;7.30;93868.00;;;;7395398;19;20608;-82
2022/05/03 04:30:53;;;;;;;25.07;20.13;;;;;7.40;93869.00;;;;7395935;19;20601;-80
2022/05/03 04:33:27;;;;;;;27.77;20.73;;;;;7.50;93863.00;;;;7396233;19;20136;-81
2022/05/03 04:35:54;;;;;;;24.57;19.10;;;;;7.50;93869.00;;;;7394021;19;20580;-81
2022/05/03 04:38:22;;;;;;;24.80;17.70;;;;;7.60;93861.00;;;;7394908;19;20596;-81
2022/05/03 04:41:02;;;;;;;25.17;19.00;;;;;7.60;93867.00;;;;7398590;19;20168;-81
2022/05/03 04:43:30;;;;;;;23.43;17.30;;;;;7.60;93867.00;;;;7394862;19;20227;-81
2022/05/03 04:46:03;;;;;;;23.07;17.63;;;;;7.70;93867.00;;;;7393623;19;20188;-82
2022/05/03 04:48:31;;;;;;;23.37;17.97;;;;;7.80;93873.00;;;;7395789;19;20140;-81
2022/05/03 04:50:58;;;;;;;19.27;16.67;;;;;8.00;93878.00;;;;7394945;19;20159;-82
2022/05/03 04:53:33;;;;;;;21.57;17.83;;;;;8.20;93872.00;;;;7394214;19;20133;-82
2022/05/03 04:56:00;;;;;;;23.30;17.10;;;;;8.50;93879.00;;;;7393480;19;20617;-81
2022/05/03 04:58:28;;;;;;;24.77;16.40;;;;;8.70;93878.00;;;;7395096;19;20141;-82
2022/05/03 05:01:02;;;;;;;17.43;15.57;;;;;8.90;93875.00;;;;7394539;19;20604;-82
2022/05/03 05:03:29;;;;;;;18.63;15.40;;;;;9.00;93881.00;;;;7393696;19;20151;-82
2022/05/03 05:05:57;;;;;;;19.33;15.00;;;;;9.20;93888.00;;;;7394879;19;20141;-82
2022/05/03 05:08:30;;;;;;;15.03;12.70;;;;;9.30;93888.00;;;;7394051;19;20615;-82
2022/05/03 05:10:58;;;;;;;13.77;11.80;;;;;9.40;93881.00;;;;7392282;19;20655;-82
2022/05/03 05:13:25;;;;;;;13.73;12.23;;;;;9.50;93889.00;;;;7394698;19;20144;-81
2022/05/03 05:16:15;;;;;;;13.10;11.80;;;;;9.70;93880.00;;;;7394393;19;20212;-82
2022/05/03 05:18:51;;;;;;;12.23;10.93;;;;;10.00;93878.00;;;;7389313;19;20125;-81
2022/05/03 05:21:24;;;;;;;12.70;11.27;;;;;10.10;93864.00;;;;7396442;19;20211;-81
2022/05/03 05:23:52;;;;;;;12.00;10.63;;;;;10.40;93879.00;;;;7395291;19;20603;-82
2022/05/03 05:26:20;;;;;;;10.83;9.73;;;;;10.60;93878.00;;;;7395403;19;20175;-82
2022/05/03 05:28:54;;;;;;;11.80;9.57;;;;;10.60;93884.00;;;;7393458;19;20169;-82
2022/05/03 05:31:21;;;;;;;9.97;8.87;;;;;10.80;93892.00;;;;7395961;19;20136;-80
2022/05/03 05:33:49;;;;;;;9.43;8.20;;;;;10.90;93882.00;;;;7395698;19;20153;-80
2022/05/03 05:36:22;;;;;;;11.65;8.57;;;;;11.00;93883.00;;;;7395733;19;20153;-81
2022/05/03 05:38:50;;;;;;;8.45;7.65;;;;;11.30;93884.00;;;;7395468;19;20611;-80
2022/05/03 05:41:18;;;;;;;9.43;7.57;;;;;11.60;93881.00;;;;7392730;19;20644;-80
2022/05/03 05:43:51;;;;;;;7.80;6.85;;;;;12.10;93885.00;;;;7393892;19;20125;-81
2022/05/03 05:46:20;;;;;;;8.82;7.57;;;;;12.60;93884.00;;;;7393273;19;20129;-79
2022/05/03 05:48:47;;;;;;;8.13;7.30;;;;;13.00;93886.00;;;;7393456;19;20121;-81
2022/05/03 05:51:22;;;;;;;10.13;6.80;;;;;13.40;93881.00;;;;7395143;19;20144;-81
2022/05/03 05:53:49;;;;;;;7.25;6.55;;;;;13.70;93875.00;;;;7394835;19;20121;-81
2022/05/03 05:56:17;;;;;;;7.70;7.00;;;;;14.00;93884.00;;;;7397284;19;20121;-79
2022/05/03 05:58:51;;;;;;;7.68;6.97;;;;;14.20;93881.00;;;;7397316;19;20128;-80
2022/05/03 06:01:35;;;;;;;7.78;7.07;;;;;14.70;93883.00;;;;7396750;19;20133;-79
2022/05/03 06:04:10;;;;;;;7.93;6.95;;;;;15.10;93868.00;;;;7396727;19;20153;-78
2022/05/03 06:06:38;;;;;;;8.57;6.93;;;;;15.20;93877.00;;;;7396512;19;20129;-79
2022/05/03 06:09:06;;;;;;;8.45;7.55;;;;;15.60;93872.00;;;;7396809;19;20129;-79
2022/05/03 06:11:42;;;;;;;7.18;6.47;;;;;15.60;93886.00;;;;7399544;19;20121;-81
2022/05/03 06:14:10;;;;;;;9.80;7.13;;;;;16.10;93883.00;;;;7398006;19;20168;-81
2022/05/03 06:16:52;;;;;;;8.23;7.40;;;;;16.50;93876.00;;;;7397765;19;21178;-79
2022/05/03 06:19:26;;;;;;;7.82;7.03;;;;;16.90;93887.00;;;;7395555;19;20486;-78
2022/05/03 06:21:54;;;;;;;7.03;6.43;;;;;16.40;93887.00;;;;7397207;19;20141;-79
2022/05/03 06:24:22;;;;;;;7.53;6.82;;;;;16.00;93887.00;;;;7396474;19;20158;-78
2022/05/03 06:26:58;;;;;;;7.70;7.00;;;;;16.40;93889.00;;;;7397974;19;20147;-78
2022/05/03 06:29:26;;;;;;;7.30;6.10;;;;;16.20;93891.00;;;;7395335;19;20144;-80
2022/05/03 06:31:54;;;;;;;9.57;7.60;;;;;16.00;93891.00;;;;7395022;19;20133;-78
2022/05/03 06:34:29;;;;;;;7.15;6.45;;;;;15.90;93890.00;;;;7396966;19;20157;-79
2022/05/03 06:36:58;;;;;;;7.30;6.35;;;;;16.40;93895.00;;;;7395814;19;20563;-78
2022/05/03 06:39:26;;;;;;;6.72;6.03;;;;;16.80;93896.00;;;;7395652;19;20140;-78
2022/05/03 06:42:06;;;;;;;8.50;7.07;;;;;16.80;93900.00;;;;7396068;19;20154;-78
2022/05/03 06:44:34;;;;;;;7.63;6.93;;;;;16.70;93899.00;;;;7396671;19;20137;-77
2022/05/03 06:47:09;;;;;;;8.07;7.28;;;;;16.50;93894.00;;;;7396535;19;20176;-78
2022/05/03 06:49:37;;;;;;;7.43;6.72;;;;;16.90;93895.00;;;;7394495;19;20132;-78
2022/05/03 06:52:06;;;;;;;7.65;6.85;;;;;17.10;93893.00;;;;7388946;19;21077;-78
2022/05/03 06:54:40;;;;;;;7.57;6.88;;;;;17.60;93900.00;;;;7391014;19;20180;-78
2022/05/03 06:57:09;;;;;;;7.70;6.90;;;;;17.60;93902.00;;;;7390122;19;20133;-79
2022/05/03 06:59:37;;;;;;;7.90;7.20;;;;;18.00;93900.00;;;;7387781;19;20154;-77
2022/05/03 07:02:11;;;;;;;7.93;7.10;;;;;18.50;93898.00;;;;7392744;19;20124;-78
2022/05/03 07:04:43;;;;;;;8.18;7.03;;;;;18.70;93898.00;;;;7389882;19;20147;-77
2022/05/03 07:07:21;;;;;;;7.40;6.70;;;;;18.80;93901.00;;;;7392446;19;20522;-73
2022/05/03 07:09:49;;;;;;;7.60;6.90;;;;;18.70;93909.00;;;;7391539;19;20616;-74
2022/05/03 07:12:20;;;;;;;11.57;7.38;;;;;18.60;93913.00;;;;7392499;19;20137;-73
2022/05/03 07:15:00;;;;;;;7.88;7.18;;;;;17.60;93929.00;;;;7391663;19;20137;-73
2022/05/03 07:23:16;;;;;;;8.07;7.38;;;;;18.60;93923.00;;;;7392990;19;20153;-74
2022/05/03 07:25:51;;;;;;;7.00;6.30;;;;;19.60;93915.00;;;;7393955;19;20132;-73
2022/05/03 07:28:19;;;;;;;6.32;5.72;;;;;19.90;93927.00;;;;7392909;19;20176;-73
2022/05/03 07:30:48;;;;;;;6.75;5.95;;;;;20.30;93926.00;;;;7390337;19;20479;-72
2022/05/03 07:33:22;;;;;;;6.28;5.68;;;;;20.80;93922.00;;;;7393980;19;20204;-74
2022/05/03 07:35:50;;;;;;;6.00;5.43;;;;;21.60;93911.00;;;;7392364;19;20148;-74
2022/05/03 07:38:18;;;;;;;5.88;5.28;;;;;21.30;93916.00;;;;7392530;19;20519;-73
2022/05/03 07:40:54;;;;;;;9.45;5.40;;;;;19.90;93935.00;;;;7392409;19;20667;-74
2022/05/03 07:43:23;;;;;;;6.78;5.75;;;;;19.60;93938.00;;;;7399764;19;20137;-74
2022/05/03 07:45:51;;;;;;;8.75;5.40;;;;;19.20;93943.00;;;;7401496;19;20145;-73
2022/05/03 07:48:27;;;;;;;8.07;5.97;;;;;19.60;93952.00;;;;7402168;19;20143;-73
2022/05/03 07:50:55;;;;;;;6.57;5.93;;;;;19.60;93946.00;;;;7402362;19;20516;-74
2022/05/03 07:53:23;;;;;;;5.72;5.22;;;;;19.20;93957.00;;;;7403878;19;20148;-73
2022/05/03 07:55:58;;;;;;;7.30;5.50;;;;;19.20;93951.00;;;;7403768;19;20140;-74
2022/05/03 07:58:25;;;;;;;7.38;5.25;;;;;18.80;93956.00;;;;7402819;19;20514;-72
2022/05/03 08:00:54;;;;;;;5.85;5.28;;;;;19.70;93946.00;;;;7400854;19;20545;-74
2022/05/03 08:03:28;;;;;;;5.78;5.00;;;;;20.50;93944.00;;;;7402452;19;20120;-73
2022/05/03 08:05:56;;;;;;;7.63;5.57;;;;;21.70;93933.00;;;;7400182;19;20141;-73
2022/05/03 08:08:25;;;;;;;5.40;4.90;;;;;22.30;93941.00;;;;7401573;19;20181;-74
2022/05/03 08:10:59;;;;;;;5.07;4.63;;;;;23.30;93934.00;;;;7399102;19;20512;-73
2022/05/03 08:13:27;;;;;;;6.63;4.57;;;;;24.30;93931.00;;;;7400585;19;20133;-74
2022/05/03 08:15:56;;;;;;;4.50;4.10;;;;;24.30;93949.00;;;;7400168;19;20132;-75
2022/05/03 08:18:37;;;;;;;4.93;4.53;;;;;23.60;93946.00;;;;7401573;19;20140;-75
2022/05/03 08:21:05;;;;;;;4.50;4.10;;;;;23.80;93945.00;;;;7399996;19;20151;-73
2022/05/03 08:23:40;;;;;;;4.35;3.95;;;;;23.80;93951.00;;;;7399581;19;20160;-75
2022/05/03 08:26:09;;;;;;;3.95;3.65;;;;;23.90;93951.00;;;;7400636;19;20659;-73
2022/05/03 08:28:37;;;;;;;6.55;3.80;;;;;23.30;93963.00;;;;7396050;19;20612;-74
2022/05/03 08:31:11;;;;;;;4.82;4.32;;;;;22.40;93967.00;;;;7399740;19;20140;-75
2022/05/03 08:33:40;;;;;;;4.00;3.40;;;;;22.00;93960.00;;;;7399177;19;20145;-74
2022/05/03 08:36:09;;;;;;;4.15;3.80;;;;;22.80;93968.00;;;;7398854;19;20144;-75
2022/05/03 08:44:23;;;;;;;3.35;3.05;;;;;24.90;93941.00;;;;7399411;19;20145;-73
2022/05/03 08:46:53;;;;;;;3.42;3.13;;;;;25.70;93933.00;;;;7400729;19;20535;-74
2022/05/03 08:49:24;;;;;;;4.25;3.72;;;;;26.30;93937.00;;;;7398427;19;20137;-73
2022/05/03 08:52:02;;;;;;;3.30;3.00;;;;;26.80;93945.00;;;;7399306;19;20648;-73
2022/05/03 08:54:32;;;;;;;3.47;2.85;;;;;27.40;93943.00;;;;7397999;19;20131;-73
2022/05/03 08:57:07;;;;;;;7.50;3.35;;;;;26.70;93957.00;;;;7393216;19;20161;-74
2022/05/03 08:59:37;;;;;;;5.43;3.03;;;;;26.30;93950.00;;;;7399676;19;20157;-73
2022/05/03 09:02:05;;;;;;;3.50;3.20;;;;;26.40;93954.00;;;;7398060;19;20200;-74
2022/05/03 09:04:40;;;;;;;3.60;3.30;;;;;26.60;93972.00;;;;7398396;19;20140;-75
2022/05/03 09:07:23;;;;;;;2.95;2.75;;;;;24.10;93979.00;;;;7397775;19;20136;-74
2022/05/03 09:10:21;;;;;;;3.15;2.92;;;;;22.30;93996.00;;;;7396595;19;20759;-73
2022/05/03 09:12:50;;;;;;;3.83;2.92;;;;;21.80;93989.00;;;;7397190;19;20166;-75
2022/05/03 09:15:32;;;;;;;3.95;2.88;;;;;21.80;93991.00;;;;7397979;19;20222;-73
2022/05/03 09:18:06;;;;;;;3.40;3.10;;;;;20.60;93991.00;;;;7396606;19;20794;-73
2022/05/03 09:26:24;;;;;;;4.03;3.33;;;;;20.10;93993.00;;;;7399615;19;20155;-73
2022/05/03 09:28:53;;;;;;;7.03;3.45;;;;;20.30;93997.00;;;;7397272;19;20204;-74
2022/05/03 09:31:35;;;;;;;4.00;3.60;;;;;20.40;93990.00;;;;7399503;19;20169;-75
2022/05/03 09:34:19;;;;;;;5.13;3.55;;;;;20.40;93985.00;;;;7397537;19;20723;-74
2022/05/03 09:36:50;;;;;;;4.10;3.70;;;;;20.80;93973.00;;;;7395296;19;20201;-74
2022/05/03 09:39:43;;;;;;;5.45;4.07;;;;;22.20;93955.00;;;;7393908;19;20133;-73
2022/05/03 09:42:14;;;;;;;4.70;3.90;;;;;23.70;93953.00;;;;7397824;19;20144;-73
2022/05/03 09:44:58;;;;;;;4.18;3.78;;;;;24.60;93956.00;;;;7398416;19;20140;-72
2022/05/03 09:47:46;;;;;;;4.13;3.10;;;;;25.70;93940.00;;;;7396553;19;20136;-73
2022/05/03 09:50:30;;;;;;;4.10;3.70;;;;;26.90;93946.00;;;;7396244;19;20133;-73
2022/05/03 09:53:10;;;;;;;4.40;4.00;;;;;26.70;93951.00;;;;7396438;19;20140;-74
2022/05/03 09:55:47;;;;;;;3.88;3.58;;;;;27.00;93939.00;;;;7396544;19;20145;-75
2022/05/03 09:58:18;;;;;;;4.28;3.22;;;;;26.60;93947.00;;;;7395407;19;20493;-75
2022/05/03 10:00:53;;;;;;;5.45;3.63;;;;;26.30;93940.00;;;;7396153;19;20239;-75
2022/05/03 10:03:21;;;;;;;3.80;3.50;;;;;26.40;93940.00;;;;7396144;19;20141;-73
2022/05/03 10:05:50;;;;;;;5.78;3.80;;;;;25.80;93939.00;;;;7394364;19;20133;-74
2022/05/03 10:08:24;;;;;;;4.45;3.47;;;;;26.40;93946.00;;;;7394887;19;20164;-74
2022/05/03 10:10:56;;;;;;;3.47;3.17;;;;;25.70;93944.00;;;;7397327;19;20172;-75
2022/05/03 10:13:26;;;;;;;5.90;3.80;;;;;26.20;93942.00;;;;7397318;19;20157;-74
2022/05/03 10:22:02;;;;;;;5.00;3.45;;;;;27.40;93946.00;;;;7395564;19;20161;-75
2022/05/03 10:24:31;;;;;;;4.32;3.88;;;;;26.70;93934.00;;;;7394516;19;20145;-74
2022/05/03 10:27:06;;;;;;;4.80;3.70;;;;;26.90;93942.00;;;;7393709;19;20158;-75
2022/05/03 10:29:36;;;;;;;3.90;3.42;;;;;26.60;93943.00;;;;7389652;19;20152;-73
2022/05/03 10:32:08;;;;;;;4.60;3.42;;;;;27.40;93934.00;;;;7394953;19;20623;-75
2022/05/03 10:34:56;;;;;;;5.22;4.03;;;;;27.20;93933.00;;;;7394896;19;20144;-74
2022/05/03 10:37:33;;;;;;;6.45;4.00;;;;;28.70;93921.00;;;;7393347;19;20137;-76
2022/05/03 10:40:13;;;;;;;4.35;3.92;;;;;28.50;93955.00;;;;7394275;19;20162;-74
2022/05/03 10:42:47;;;;;;;5.80;3.50;;;;;26.30;93934.00;;;;7394640;19;20136;-74
2022/05/03 10:45:24;;;;;;;6.50;3.78;;;;;25.10;93957.00;;;;7393606;19;20145;-75
2022/05/03 10:47:54;;;;;;;6.55;3.47;;;;;24.60;93961.00;;;;7395620;19;20136;-75
2022/05/03 10:50:34;;;;;;;4.40;4.00;;;;;22.30;93966.00;;;;7395165;19;20150;-74
2022/05/03 10:53:17;;;;;;;6.80;3.40;;;;;22.20;93971.00;;;;7395930;19;20588;-74
2022/05/03 10:56:06;;;;;;;4.82;3.95;;;;;20.20;93967.00;;;;7389913;19;20161;-74
2022/05/03 10:58:43;;;;;;;4.18;3.75;;;;;20.50;93970.00;;;;7388286;19;20462;-75
2022/05/03 11:01:22;;;;;;;4.18;3.53;;;;;19.60;93963.00;;;;7388922;19;20145;-74
2022/05/03 11:04:06;;;;;;;4.35;3.70;;;;;20.50;93964.00;;;;7390193;19;20639;-75
2022/05/03 11:06:41;;;;;;;3.42;3.10;;;;;21.00;93956.00;;;;7390263;19;20208;-75
2022/05/03 11:09:31;;;;;;;4.20;3.80;;;;;20.20;93942.00;;;;7391280;19;20150;-74
2022/05/03 11:12:01;;;;;;;4.65;3.50;;;;;20.70;93949.00;;;;7391352;19;20141;-74
2022/05/03 11:14:36;;;;;;;3.97;3.42;;;;;20.50;93950.00;;;;7390742;19;20133;-73
2022/05/03 11:17:18;;;;;;;4.18;3.83;;;;;19.80;93956.00;;;;7390352;19;20615;-73
2022/05/03 11:19:55;;;;;;;5.78;3.60;;;;;20.10;93951.00;;;;7399415;19;20523;-73
2022/05/03 11:22:32;;;;;;;4.15;3.75;;;;;21.90;93914.00;;;;7397017;19;20509;-73
2022/05/03 11:25:12;;;;;;;4.43;3.95;;;;;24.10;93894.00;;;;7397112;19;20577;-74
2022/05/03 11:27:43;;;;;;;3.63;3.20;;;;;24.60;93916.00;;;;7401760;19;20147;-75
2022/05/03 11:30:25;;;;;;;3.55;3.25;;;;;23.50;93912.00;;;;7399896;19;20143;-72
2022/05/03 11:32:59;;;;;;;5.78;3.55;;;;;22.50;93936.00;;;;7401931;19;20125;-74
2022/05/03 11:35:40;;;;;;;6.28;3.90;;;;;21.80;93908.00;;;;7399758;19;20156;-73
2022/05/03 11:38:11;;;;;;;3.63;3.28;;;;;23.70;93892.00;;;;7398357;19;20132;-73
2022/05/03 11:41:07;;;;;;;3.42;3.10;;;;;22.30;93926.00;;;;7400116;19;20630;-73
2022/05/03 11:43:35;;;;;;;4.63;3.40;;;;;20.80;93922.00;;;;7400881;19;20137;-75
2022/05/03 11:46:09;;;;;;;3.58;3.28;;;;;20.60;93901.00;;;;7401075;19;20662;-73
2022/05/03 11:48:38;;;;;;;3.65;3.25;;;;;20.30;93927.00;;;;7400300;19;20164;-74
2022/05/03 11:56:48;;;;;;;3.50;3.05;;;;;21.10;93935.00;;;;7402077;19;20532;-73
2022/05/03 11:59:23;;;;;;;3.42;3.13;;;;;20.80;93924.00;;;;7399477;19;20657;-74
2022/05/03 12:02:12;;;;;;;4.35;3.15;;;;;20.40;93930.00;;;;7401490;19;20129;-73
2022/05/03 12:05:02;;;;;;;4.65;2.95;;;;;20.20;93921.00;;;;7401037;19;20473;-72
2022/05/03 12:07:35;;;;;;;3.33;3.03;;;;;20.20;93915.00;;;;7402823;19;20132;-73
2022/05/03 12:10:29;;;;;;;3.53;3.05;;;;;19.50;93899.00;;;;7396413;19;20164;-72
2022/05/03 12:13:12;;;;;;;3.17;2.78;;;;;20.00;93913.00;;;;7398836;19;20157;-75
2022/05/03 12:16:15;;;;;;;2.97;2.67;;;;;20.00;93911.00;;;;7398827;19;20527;-72
2022/05/03 12:18:50;;;;;;;3.10;2.90;;;;;20.10;93914.00;;;;7397271;19;20141;-74
2022/05/03 12:21:28;;;;;;;5.22;3.03;;;;;21.10;93905.00;;;;7398720;19;20140;-72
2022/05/03 12:24:03;;;;;;;3.58;3.25;;;;;23.20;93879.00;;;;7397079;19;20147;-73
2022/05/03 12:26:40;;;;;;;3.67;2.92;;;;;25.70;93877.00;;;;7398899;19;20129;-74
2022/05/03 12:29:09;;;;;;;3.42;2.67;;;;;27.30;93857.00;;;;7395558;19;20149;-73
2022/05/03 12:31:46;;;;;;;4.55;3.55;;;;;28.10;93857.00;;;;7399059;19;20133;-74
2022/05/03 12:34:34;;;;;;;3.95;3.35;;;;;26.00;93892.00;;;;7397358;19;20160;-74
2022/05/03 12:37:12;;;;;;;3.50;3.20;;;;;23.30;93898.00;;;;7397856;19;20129;-72
2022/05/03 12:39:40;;;;;;;3.95;3.60;;;;;22.40;93912.00;;;;7397755;19;20151;-73
2022/05/03 12:42:14;;;;;;;9.50;3.20;;;;;21.80;93904.00;;;;7398640;19;20603;-74
2022/05/03 12:44:57;;;;;;;5.78;3.53;;;;;21.40;93905.00;;;;7400321;19;20124;-73
2022/05/03 12:47:29;;;;;;;4.32;3.92;;;;;20.60;93913.00;;;;7402094;19;20131;-73
2022/05/03 12:50:04;;;;;;;4.63;3.97;;;;;20.50;93906.00;;;;7398640;19;20129;-73
2022/05/03 12:52:32;;;;;;;5.57;4.60;;;;;20.10;93908.00;;;;7398803;19;20137;-73
2022/05/03 12:55:01;;;;;;;3.83;3.45;;;;;19.90;93911.00;;;;7400113;19;20145;-73
2022/05/03 13:00:27;;;;;;;4.95;3.47;;;;;18.90;93911.00;;;;7400811;19;20125;-76
2022/05/03 13:03:10;;;;;;;4.93;3.47;;;;;19.70;93899.00;;;;7399891;19;20136;-74
2022/05/03 13:05:38;;;;;;;4.82;3.70;;;;;20.30;93897.00;;;;7398239;19;20133;-73
2022/05/03 13:08:13;;;;;;;4.32;3.63;;;;;20.60;93891.00;;;;7397127;19;20164;-73
2022/05/03 13:10:41;;;;;;;4.75;3.53;;;;;21.60;93872.00;;;;7398003;19;20145;-74
2022/05/03 13:13:10;;;;;;;4.85;3.50;;;;;22.50;93891.00;;;;7398572;19;20217;-75
2022/05/03 13:15:44;;;;;;;4.22;3.65;;;;;22.10;93890.00;;;;7398455;19;20529;-74
2022/05/03 13:18:19;;;;;;;5.97;4.03;;;;;21.20;93888.00;;;;7393164;19;20160;-73
2022/05/03 13:20:54;;;;;;;7.47;3.60;;;;;20.20;93902.00;;;;7395676;19;20141;-74
2022/05/03 13:23:23;;;;;;;13.68;3.65;;;;;19.90;93898.00;;;;7397547;19;20145;-74
2022/05/03 13:25:51;;;;;;;9.18;3.38;;;;;19.40;93903.00;;;;7398493;19;20129;-74